Rorichmoor — V2BV7 — position and weather

sailwx.info

Track history (hours):
 
Tides and Currents Weather Stations Pressure Air Temp Water Temp Dewpoint Dewpoint Depression Visibility Wind Speed Wind Dir Waves Ship Positions

Rorichmoor

Last reported at 2017-Aug-17 09:44 UTC. Time now 2017-Aug-19 07:39 UTC.
Position N 39°36' E 013°20'.

Length 80 m; draft 4.4 m.

Type: Cargo ship. MMSI: 304938000.

Date/timePositionNaut miles runAvg speedWind from/ knotsBaromVisibWave heightAir tempDewpointWater temp
2017-Aug-17 09:44N 39°36' E 013°20'3 9.3
2017-Aug-17 09:27N 39°34' E 013°23'20 9.2
2017-Aug-17 07:14N 39°24' E 013°45'88 9.2
2017-Aug-16 21:39N 38°35' E 015°19'4 9.2
2017-Aug-16 21:13N 38°33' E 015°23'2 9.3
2017-Aug-16 20:59N 38°31' E 015°25'4 9.2
2017-Aug-16 20:30N 38°28' E 015°29'5 9.0
2017-Aug-16 20:00N 38°25' E 015°33'4 9.1
2017-Aug-16 19:30N 38°22' E 015°37'5 9.1
2017-Aug-16 19:00N 38°18' E 015°41'3 6.8
2017-Aug-16 18:30N 38°15' E 015°40'3 6.8
2017-Aug-16 18:01N 38°13' E 015°37'4 8.2
2017-Aug-16 17:31N 38°08' E 015°37'5 9.2
2017-Aug-16 17:00N 38°04' E 015°36'4 8.9
2017-Aug-16 16:30N 37°59' E 015°36'5 8.9
2017-Aug-16 15:58N 37°56' E 015°41'108 8.2
2017-Aug-16 02:48N 39°14' E 017°16'3 9.3
2017-Aug-16 02:26N 39°17' E 017°16'34 9.4
2017-Aug-15 22:51N 39°51' E 017°11'3 9.2
2017-Aug-15 22:29N 39°54' E 017°10'4 9.2
2017-Aug-15 22:00N 39°58' E 017°10'5 9.2
2017-Aug-15 21:30N 40°03' E 017°09'5 9.2
2017-Aug-15 21:00N 40°07' E 017°08'5 9.2
2017-Aug-15 20:31N 40°12' E 017°07'5 9.3
2017-Aug-15 20:00N 40°17' E 017°07'5 9.3
2017-Aug-15 19:30N 40°21' E 017°06'4 9.0
2017-Aug-15 19:00N 40°26' E 017°05'4 7.7
2017-Aug-15 18:30N 40°29' E 017°07'2 3.9
2017-Aug-15 18:00N 40°30' E 017°09'0 0.0
2017-Aug-15 17:30N 40°30' E 017°09'0 0.0
2017-Aug-15 17:00N 40°30' E 017°09'0 0.0
2017-Aug-15 16:30N 40°30' E 017°09'0 0.0
2017-Aug-15 16:00N 40°30' E 017°09'0 0.0
2017-Aug-15 15:30N 40°30' E 017°09'0 0.0
2017-Aug-15 15:00N 40°30' E 017°09'0 0.0
2017-Aug-15 14:30N 40°30' E 017°09'0 0.0
2017-Aug-15 14:00N 40°30' E 017°09'0 0.0
2017-Aug-15 13:30N 40°30' E 017°09'0 0.0
2017-Aug-15 13:00N 40°30' E 017°09'0 0.0
2017-Aug-15 12:30N 40°30' E 017°09'0 0.0
2017-Aug-15 12:00N 40°30' E 017°09'0 0.0
2017-Aug-15 11:30N 40°30' E 017°09'0 0.0
2017-Aug-15 11:00N 40°30' E 017°09'0 0.0
2017-Aug-15 10:30N 40°30' E 017°09'0 0.0
2017-Aug-15 10:00N 40°30' E 017°09'0 0.0
2017-Aug-15 09:30N 40°30' E 017°09'0 0.0
2017-Aug-15 09:00N 40°30' E 017°09'0 0.0
2017-Aug-15 08:30N 40°30' E 017°09'0 0.0
2017-Aug-15 08:00N 40°30' E 017°09'0 0.0
2017-Aug-15 07:30N 40°30' E 017°09'0 0.0
2017-Aug-15 07:00N 40°30' E 017°09'0 0.0
2017-Aug-15 06:30N 40°30' E 017°09'0 0.0
2017-Aug-15 06:00N 40°30' E 017°09'0 0.0
2017-Aug-15 05:30N 40°30' E 017°09'0 0.0
2017-Aug-15 05:00N 40°30' E 017°09'0 0.0
2017-Aug-15 04:30N 40°30' E 017°09'0 0.0
2017-Aug-15 04:00N 40°30' E 017°09'0 0.0
2017-Aug-15 03:30N 40°30' E 017°09'0 0.0
2017-Aug-15 03:00N 40°30' E 017°09'0 0.0
2017-Aug-15 02:30N 40°30' E 017°09'0 0.0
2017-Aug-15 02:00N 40°30' E 017°09'0 0.0
2017-Aug-15 01:30N 40°30' E 017°09'0 0.0
2017-Aug-15 01:00N 40°30' E 017°09'0 0.0
2017-Aug-15 00:30N 40°30' E 017°09'0 0.0
2017-Aug-15 00:00N 40°30' E 017°09'0 0.0
2017-Aug-14 23:30N 40°30' E 017°09'0 0.0
2017-Aug-14 23:00N 40°30' E 017°09'0 0.0
2017-Aug-14 22:30N 40°30' E 017°09'0 0.0
2017-Aug-14 22:00N 40°30' E 017°09'0 0.0
2017-Aug-14 21:30N 40°30' E 017°09'0 0.0
2017-Aug-14 21:00N 40°30' E 017°09'0 0.0
2017-Aug-14 20:30N 40°30' E 017°09'0 0.0
2017-Aug-14 20:00N 40°30' E 017°09'0 0.0
2017-Aug-14 19:30N 40°30' E 017°09'0 0.0
2017-Aug-14 19:00N 40°30' E 017°09'0 0.0
2017-Aug-14 18:30N 40°30' E 017°09'0 0.0
2017-Aug-14 18:00N 40°30' E 017°09'0 0.0
2017-Aug-14 17:30N 40°30' E 017°09'0 0.0
2017-Aug-14 17:00N 40°30' E 017°09'0 0.0
2017-Aug-14 16:30N 40°30' E 017°09'0 0.0
2017-Aug-14 16:00N 40°30' E 017°09'0 0.0
2017-Aug-14 15:30N 40°30' E 017°09'0 0.0
2017-Aug-14 15:00N 40°30' E 017°09'0 0.0
2017-Aug-14 14:30N 40°30' E 017°09'0 0.0
2017-Aug-14 14:00N 40°30' E 017°09'0 0.0
2017-Aug-14 13:27N 40°30' E 017°09'0 0.0
2017-Aug-14 13:00N 40°30' E 017°09'0 0.0
2017-Aug-14 12:30N 40°30' E 017°09'0 0.0
2017-Aug-14 12:00N 40°30' E 017°09'0 0.0
2017-Aug-14 11:30N 40°30' E 017°09'0 0.0
2017-Aug-14 11:00N 40°30' E 017°09'0 0.0
2017-Aug-14 10:30N 40°30' E 017°09'0 0.0
2017-Aug-14 10:00N 40°30' E 017°09'0 0.0
2017-Aug-14 09:30N 40°30' E 017°09'0 0.0
2017-Aug-14 09:00N 40°30' E 017°09'0 0.0
2017-Aug-14 08:30N 40°30' E 017°09'0 0.0
2017-Aug-14 08:00N 40°30' E 017°09'0 0.0
2017-Aug-14 07:30N 40°30' E 017°09'0 0.0
2017-Aug-14 07:00N 40°30' E 017°09'0 0.0
2017-Aug-14 06:30N 40°30' E 017°09'0 0.0
2017-Aug-14 06:00N 40°30' E 017°09'0 0.0
2017-Aug-14 05:30N 40°30' E 017°09'0 0.0
2017-Aug-14 05:00N 40°30' E 017°09'0 0.0
2017-Aug-14 04:30N 40°30' E 017°09'0 0.0
2017-Aug-14 04:00N 40°30' E 017°09'0 0.0
2017-Aug-14 03:30N 40°30' E 017°09'0 0.0
2017-Aug-14 03:00N 40°30' E 017°09'0 0.0
2017-Aug-14 02:30N 40°30' E 017°09'0 0.0
2017-Aug-14 02:00N 40°30' E 017°09'0 0.0
2017-Aug-14 01:30N 40°30' E 017°09'0 0.0
2017-Aug-14 01:00N 40°30' E 017°09'0 0.0
2017-Aug-14 00:30N 40°30' E 017°09'0 0.0
2017-Aug-14 00:00N 40°30' E 017°09'0 0.0
2017-Aug-13 23:30N 40°30' E 017°09'0 0.0
2017-Aug-13 23:00N 40°30' E 017°09'0 0.0
2017-Aug-13 22:30N 40°30' E 017°09'0 0.0
2017-Aug-13 22:00N 40°30' E 017°09'0 0.0
2017-Aug-13 21:30N 40°30' E 017°09'0 0.0
2017-Aug-13 21:00N 40°30' E 017°09'0 0.0
2017-Aug-13 20:30N 40°30' E 017°09'0 0.0
2017-Aug-13 19:54N 40°30' E 017°09'0 0.0
2017-Aug-13 19:30N 40°30' E 017°09'0 0.0
2017-Aug-13 19:00N 40°30' E 017°09'0 0.0
2017-Aug-13 18:30N 40°30' E 017°09'0 0.0
2017-Aug-13 18:00N 40°30' E 017°09'0 0.0
2017-Aug-13 17:30N 40°30' E 017°09'0 0.0
2017-Aug-13 17:00N 40°30' E 017°09'0 0.0
2017-Aug-13 16:30N 40°30' E 017°09'0 0.0
2017-Aug-13 16:00N 40°30' E 017°09'0 0.0
2017-Aug-13 15:30N 40°30' E 017°09'0 0.0
2017-Aug-13 15:00N 40°30' E 017°09'0 0.0
2017-Aug-13 14:30N 40°30' E 017°09'0 0.0
2017-Aug-13 14:00N 40°30' E 017°09'0 0.0
2017-Aug-13 13:30N 40°30' E 017°09'0 0.0
2017-Aug-13 13:00N 40°30' E 017°09'0 0.0
2017-Aug-13 12:30N 40°30' E 017°09'0 0.0
2017-Aug-13 11:57N 40°30' E 017°09'0 0.0
2017-Aug-13 11:30N 40°30' E 017°09'0 0.0
2017-Aug-13 11:00N 40°30' E 017°09'0 0.0
2017-Aug-13 10:30N 40°30' E 017°09'0 0.0
2017-Aug-13 10:00N 40°30' E 017°09'0 0.0
2017-Aug-13 09:27N 40°30' E 017°09'0 0.0
2017-Aug-13 09:00N 40°30' E 017°09'0 0.0
2017-Aug-13 08:30N 40°30' E 017°09'0 0.0
2017-Aug-13 08:00N 40°30' E 017°09'0 0.0
2017-Aug-13 07:30N 40°30' E 017°09'0 0.0
2017-Aug-13 06:57N 40°30' E 017°09'0 0.0
2017-Aug-13 06:30N 40°30' E 017°09'0 0.0
2017-Aug-13 05:57N 40°30' E 017°09'0 0.0
2017-Aug-13 05:30N 40°30' E 017°09'0 0.0
2017-Aug-13 05:00N 40°30' E 017°09'0 0.0
2017-Aug-13 04:30N 40°30' E 017°09'0 0.0
2017-Aug-13 04:00N 40°30' E 017°09'0 0.0
2017-Aug-13 03:30N 40°30' E 017°09'0 0.0
2017-Aug-13 03:00N 40°30' E 017°09'0 0.0
2017-Aug-13 02:30N 40°30' E 017°09'0 0.0
2017-Aug-13 02:00N 40°30' E 017°09'0 0.0
2017-Aug-13 01:30N 40°30' E 017°09'0 0.0
2017-Aug-13 01:00N 40°30' E 017°09'0 0.0
2017-Aug-13 00:30N 40°30' E 017°09'0 0.0
2017-Aug-13 00:00N 40°30' E 017°09'0 0.0
2017-Aug-12 23:30N 40°30' E 017°09'0 0.0
2017-Aug-12 23:00N 40°30' E 017°09'0 0.0
2017-Aug-12 22:30N 40°30' E 017°09'0 0.0
2017-Aug-12 21:57N 40°30' E 017°09'0 0.0
2017-Aug-12 21:30N 40°30' E 017°09'0 0.0
2017-Aug-12 21:00N 40°30' E 017°09'0 0.0
2017-Aug-12 20:27N 40°30' E 017°09'0 0.0
2017-Aug-12 20:00N 40°30' E 017°09'0 0.0
2017-Aug-12 19:24N 40°30' E 017°09'0 0.0
2017-Aug-12 19:00N 40°30' E 017°09'0 0.0
2017-Aug-12 18:30N 40°30' E 017°09'0 0.0
2017-Aug-12 18:00N 40°30' E 017°09'0 0.0
2017-Aug-12 17:30N 40°30' E 017°09'0 0.0
2017-Aug-12 17:00N 40°30' E 017°09'0 0.0
2017-Aug-12 16:30N 40°30' E 017°09'0 0.0
2017-Aug-12 16:00N 40°30' E 017°09'0 0.0
2017-Aug-12 15:30N 40°30' E 017°09'0 0.0
2017-Aug-12 15:00N 40°30' E 017°09'0 0.0
2017-Aug-12 14:30N 40°30' E 017°09'0 0.0
2017-Aug-12 14:00N 40°30' E 017°09'0 0.0
2017-Aug-12 13:30N 40°30' E 017°09'0 0.0
2017-Aug-12 13:00N 40°30' E 017°09'0 0.0
2017-Aug-12 12:30N 40°30' E 017°09'0 0.0
2017-Aug-12 12:00N 40°30' E 017°09'0 0.0
2017-Aug-12 11:30N 40°30' E 017°09'0 0.0
2017-Aug-12 11:00N 40°30' E 017°09'0 0.0
2017-Aug-12 10:30N 40°30' E 017°09'0 0.0
2017-Aug-12 10:00N 40°30' E 017°09'0 0.0
2017-Aug-12 09:30N 40°30' E 017°09'0 0.0
2017-Aug-12 09:00N 40°30' E 017°09'0 0.0
2017-Aug-12 08:30N 40°30' E 017°09'0 0.0
2017-Aug-12 08:00N 40°30' E 017°09'0 0.0
2017-Aug-12 07:30N 40°30' E 017°09'0 0.0
2017-Aug-12 06:57N 40°30' E 017°09'0 0.0
2017-Aug-12 06:30N 40°30' E 017°09'0 0.0
2017-Aug-12 06:00N 40°30' E 017°09'0 0.0
2017-Aug-12 05:30N 40°30' E 017°09'0 0.0
2017-Aug-12 05:00N 40°30' E 017°09'0 0.0
2017-Aug-12 04:30N 40°30' E 017°09'0 0.0
2017-Aug-12 04:00N 40°30' E 017°09'0 0.0
2017-Aug-12 03:30N 40°30' E 017°09'0 0.0
2017-Aug-12 03:00N 40°30' E 017°09'0 0.0
2017-Aug-12 02:30N 40°30' E 017°09'0 0.0
2017-Aug-12 02:00N 40°30' E 017°09'0 0.0
2017-Aug-12 01:30N 40°30' E 017°09'0 0.0
2017-Aug-12 01:00N 40°30' E 017°09'0 0.0
2017-Aug-12 00:30N 40°30' E 017°09'0 0.0
2017-Aug-12 00:00N 40°30' E 017°09'0 0.0
2017-Aug-11 23:30N 40°30' E 017°09'0 0.0
2017-Aug-11 23:00N 40°30' E 017°09'0 0.0
2017-Aug-11 22:30N 40°30' E 017°09'0 0.0
2017-Aug-11 22:00N 40°30' E 017°09'0 0.0
2017-Aug-11 21:27N 40°30' E 017°09'0 0.0
2017-Aug-11 21:00N 40°30' E 017°09'0 0.0
2017-Aug-11 20:30N 40°30' E 017°09'0 0.0
2017-Aug-11 20:00N 40°30' E 017°09'0 0.0
2017-Aug-11 19:30N 40°30' E 017°09'0 0.0
2017-Aug-11 19:00N 40°30' E 017°09'0 0.0
2017-Aug-11 18:30N 40°30' E 017°09'0 0.0
2017-Aug-11 18:00N 40°30' E 017°09'0 0.0
2017-Aug-11 17:27N 40°30' E 017°09'0 0.0
2017-Aug-11 17:00N 40°30' E 017°09'0 0.0
2017-Aug-11 16:30N 40°30' E 017°09'0 0.0
2017-Aug-11 16:00N 40°30' E 017°09'0 0.0
2017-Aug-11 15:30N 40°30' E 017°09'0 0.0
2017-Aug-11 15:00N 40°30' E 017°09'0 1.0
2017-Aug-11 14:30N 40°30' E 017°09'7 6.6
2017-Aug-11 13:30N 40°23' E 017°08'510.1
2017-Aug-11 13:00N 40°18' E 017°08'510.1
2017-Aug-11 12:30N 40°13' E 017°09'510.0
2017-Aug-11 12:00N 40°08' E 017°10'510.0
2017-Aug-11 11:30N 40°03' E 017°11'510.0
2017-Aug-11 11:00N 39°58' E 017°11'5 9.9
2017-Aug-11 10:30N 39°53' E 017°12'510.0
2017-Aug-11 10:00N 39°48' E 017°12'5 9.9
2017-Aug-11 09:30N 39°43' E 017°12'6 9.7
2017-Aug-11 08:56N 39°38' E 017°13'4 9.4
2017-Aug-11 08:28N 39°33' E 017°14'4 9.6
2017-Aug-11 08:00N 39°29' E 017°15'5 9.6
2017-Aug-11 07:30N 39°24' E 017°15'5 9.6
2017-Aug-11 07:00N 39°19' E 017°16'5 9.8
2017-Aug-11 06:30N 39°14' E 017°17'510.0
2017-Aug-11 06:00N 39°10' E 017°17'510.1
2017-Aug-11 05:30N 39°05' E 017°18'510.0
2017-Aug-11 05:00N 38°60' E 017°19'4 8.8
2017-Aug-11 04:30N 38°55' E 017°17'5 9.5
2017-Aug-11 04:00N 38°52' E 017°13'5 9.5
2017-Aug-11 03:30N 38°48' E 017°10'5 9.3
2017-Aug-11 03:00N 38°44' E 017°06'5 9.2
2017-Aug-11 02:30N 38°41' E 017°02'77 9.0
2017-Aug-10 17:57N 37°52' E 015°47'4 8.3
2017-Aug-10 17:30N 37°53' E 015°42'4 8.6
2017-Aug-10 17:00N 37°56' E 015°38'4 9.0
2017-Aug-10 16:30N 37°59' E 015°34'4 8.1
2017-Aug-10 16:00N 38°03' E 015°33'4 8.8
2017-Aug-10 15:30N 38°07' E 015°34'4 8.3
2017-Aug-10 15:00N 38°11' E 015°35'4 8.7
2017-Aug-10 14:30N 38°15' E 015°38'4 6.6
2017-Aug-10 13:57N 38°19' E 015°39'4 9.5
2017-Aug-10 13:29N 38°22' E 015°34'510.0
2017-Aug-10 13:00N 38°25' E 015°30'5 9.7
2017-Aug-10 12:26N 38°29' E 015°25'5 9.7
2017-Aug-10 11:54N 38°32' E 015°20'4 9.6
2017-Aug-10 11:30N 38°35' E 015°16'88 9.8
2017-Aug-10 02:34N 39°34' E 013°52'1 9.9
2017-Aug-10 02:30N 39°34' E 013°52'5 9.8
2017-Aug-10 02:00N 39°37' E 013°47'9 9.9
2017-Aug-10 01:08N 39°43' E 013°39'1 9.9
2017-Aug-10 01:00N 39°44' E 013°37'256 8.9
2017-Aug-08 20:09N 43°05' E 010°05'7 9.7
2017-Aug-08 19:26N 43°12' E 010°07'4 9.6
2017-Aug-08 19:00N 43°16' E 010°08'5 9.5
2017-Aug-08 18:30N 43°20' E 010°10'5 9.6
2017-Aug-08 18:00N 43°25' E 010°11'5 9.7
2017-Aug-08 17:30N 43°30' E 010°13'4 8.5
2017-Aug-08 16:59N 43°32' E 010°17'1 1.4
2017-Aug-08 16:30N 43°33' E 010°18'0 0.0
2017-Aug-08 15:59N 43°33' E 010°18'0 0.0
2017-Aug-08 15:26N 43°33' E 010°18'0 0.0
2017-Aug-08 14:59N 43°33' E 010°18'0 0.0
2017-Aug-08 14:11N 43°33' E 010°18'0 0.0
2017-Aug-08 13:56N 43°33' E 010°18'0 0.0
2017-Aug-08 13:26N 43°33' E 010°18'0 0.0
2017-Aug-08 12:59N 43°33' E 010°18'0 0.0
2017-Aug-08 12:29N 43°33' E 010°18'0 0.0
2017-Aug-08 11:50N 43°33' E 010°18'0 0.0
2017-Aug-08 11:29N 43°33' E 010°18'0 0.0
2017-Aug-08 10:53N 43°33' E 010°18'0 0.0
2017-Aug-08 10:29N 43°33' E 010°18'0 0.0
2017-Aug-08 09:59N 43°33' E 010°18'0 0.0
2017-Aug-08 09:14N 43°33' E 010°18'0 0.0
2017-Aug-08 08:56N 43°33' E 010°18'0 0.0
2017-Aug-08 08:20N 43°33' E 010°18'0 0.0
2017-Aug-08 07:20N 43°33' E 010°18'0 0.0
2017-Aug-08 06:56N 43°33' E 010°18'0 0.0
2017-Aug-08 03:32N 43°33' E 010°18'0 0.0
2017-Aug-08 03:26N 43°33' E 010°18'0 0.0
2017-Aug-08 02:56N 43°33' E 010°18'0 0.0
2017-Aug-08 02:20N 43°33' E 010°18'0 0.0
2017-Aug-08 01:59N 43°33' E 010°18'0 0.0
2017-Aug-08 01:29N 43°33' E 010°18'0 0.0
2017-Aug-08 00:59N 43°33' E 010°18'0 0.0
2017-Aug-08 00:29N 43°33' E 010°18'0 0.0
2017-Aug-07 23:59N 43°33' E 010°18'0 0.0
2017-Aug-07 23:29N 43°33' E 010°18'0 0.0
2017-Aug-07 22:56N 43°33' E 010°18'0 0.0
2017-Aug-07 22:20N 43°33' E 010°18'0 0.0
2017-Aug-07 21:17N 43°33' E 010°18'0 0.0
2017-Aug-07 20:59N 43°33' E 010°18'0 0.0
2017-Aug-07 19:53N 43°33' E 010°18'0 0.0
2017-Aug-07 19:23N 43°33' E 010°18'0 0.0
2017-Aug-07 18:59N 43°33' E 010°18'0 0.0
2017-Aug-07 18:29N 43°33' E 010°18'0 0.0
2017-Aug-07 17:56N 43°33' E 010°18'0 0.0
2017-Aug-07 17:26N 43°33' E 010°18'0 0.0
2017-Aug-07 16:56N 43°33' E 010°18'0 0.0
2017-Aug-07 16:29N 43°33' E 010°18'0 0.0
2017-Aug-07 15:59N 43°33' E 010°18'0 0.0
2017-Aug-07 15:14N 43°33' E 010°18'0 0.0
2017-Aug-07 14:59N 43°33' E 010°18'0 0.0
2017-Aug-07 14:23N 43°33' E 010°18'0 0.0
2017-Aug-07 13:56N 43°33' E 010°18'0 0.0
2017-Aug-07 13:29N 43°33' E 010°18'0 0.0
2017-Aug-07 12:53N 43°33' E 010°18'0 0.0
2017-Aug-07 12:29N 43°33' E 010°18'0 0.0
2017-Aug-07 11:59N 43°33' E 010°18'0 0.0
2017-Aug-07 11:26N 43°33' E 010°18'0 0.0
2017-Aug-07 10:47N 43°33' E 010°18'0 0.0
2017-Aug-07 10:26N 43°33' E 010°18'0 0.0
2017-Aug-07 09:59N 43°33' E 010°18'  
Track history (hours):
 
Tides and Currents Weather Stations Pressure Air Temp Water Temp Dewpoint Dewpoint Depression Visibility Wind Speed Wind Dir Waves Ship Positions

Rorichmoor

Last reported at 2017-Aug-17 09:44 UTC. Time now 2017-Aug-19 07:39 UTC.
Position N 39°36' E 013°20'.

Length 80 m; draft 4.4 m.

Type: Cargo ship. MMSI: 304938000.

Date/timePositionNaut miles runAvg speedWind from/ knotsBaromVisibWave heightAir tempDewpointWater temp
2017-Aug-17 09:44N 39°36' E 013°20'3 9.3
2017-Aug-17 09:27N 39°34' E 013°23'20 9.2
2017-Aug-17 07:14N 39°24' E 013°45'88 9.2
2017-Aug-16 21:39N 38°35' E 015°19'4 9.2
2017-Aug-16 21:13N 38°33' E 015°23'2 9.3
2017-Aug-16 20:59N 38°31' E 015°25'4 9.2
2017-Aug-16 20:30N 38°28' E 015°29'5 9.0
2017-Aug-16 20:00N 38°25' E 015°33'4 9.1
2017-Aug-16 19:30N 38°22' E 015°37'5 9.1
2017-Aug-16 19:00N 38°18' E 015°41'3 6.8
2017-Aug-16 18:30N 38°15' E 015°40'3 6.8
2017-Aug-16 18:01N 38°13' E 015°37'4 8.2
2017-Aug-16 17:31N 38°08' E 015°37'5 9.2
2017-Aug-16 17:00N 38°04' E 015°36'4 8.9
2017-Aug-16 16:30N 37°59' E 015°36'5 8.9
2017-Aug-16 15:58N 37°56' E 015°41'108 8.2
2017-Aug-16 02:48N 39°14' E 017°16'3 9.3
2017-Aug-16 02:26N 39°17' E 017°16'34 9.4
2017-Aug-15 22:51N 39°51' E 017°11'3 9.2
2017-Aug-15 22:29N 39°54' E 017°10'4 9.2
2017-Aug-15 22:00N 39°58' E 017°10'5 9.2
2017-Aug-15 21:30N 40°03' E 017°09'5 9.2
2017-Aug-15 21:00N 40°07' E 017°08'5 9.2
2017-Aug-15 20:31N 40°12' E 017°07'5 9.3
2017-Aug-15 20:00N 40°17' E 017°07'5 9.3
2017-Aug-15 19:30N 40°21' E 017°06'4 9.0
2017-Aug-15 19:00N 40°26' E 017°05'4 7.7
2017-Aug-15 18:30N 40°29' E 017°07'2 3.9
2017-Aug-15 18:00N 40°30' E 017°09'0 0.0
2017-Aug-15 17:30N 40°30' E 017°09'0 0.0
2017-Aug-15 17:00N 40°30' E 017°09'0 0.0
2017-Aug-15 16:30N 40°30' E 017°09'0 0.0
2017-Aug-15 16:00N 40°30' E 017°09'0 0.0
2017-Aug-15 15:30N 40°30' E 017°09'0 0.0
2017-Aug-15 15:00N 40°30' E 017°09'0 0.0
2017-Aug-15 14:30N 40°30' E 017°09'0 0.0
2017-Aug-15 14:00N 40°30' E 017°09'0 0.0
2017-Aug-15 13:30N 40°30' E 017°09'0 0.0
2017-Aug-15 13:00N 40°30' E 017°09'0 0.0
2017-Aug-15 12:30N 40°30' E 017°09'0 0.0
2017-Aug-15 12:00N 40°30' E 017°09'0 0.0
2017-Aug-15 11:30N 40°30' E 017°09'0 0.0
2017-Aug-15 11:00N 40°30' E 017°09'0 0.0
2017-Aug-15 10:30N 40°30' E 017°09'0 0.0
2017-Aug-15 10:00N 40°30' E 017°09'0 0.0
2017-Aug-15 09:30N 40°30' E 017°09'0 0.0
2017-Aug-15 09:00N 40°30' E 017°09'0 0.0
2017-Aug-15 08:30N 40°30' E 017°09'0 0.0
2017-Aug-15 08:00N 40°30' E 017°09'0 0.0
2017-Aug-15 07:30N 40°30' E 017°09'0 0.0
2017-Aug-15 07:00N 40°30' E 017°09'0 0.0
2017-Aug-15 06:30N 40°30' E 017°09'0 0.0
2017-Aug-15 06:00N 40°30' E 017°09'0 0.0
2017-Aug-15 05:30N 40°30' E 017°09'0 0.0
2017-Aug-15 05:00N 40°30' E 017°09'0 0.0
2017-Aug-15 04:30N 40°30' E 017°09'0 0.0
2017-Aug-15 04:00N 40°30' E 017°09'0 0.0
2017-Aug-15 03:30N 40°30' E 017°09'0 0.0
2017-Aug-15 03:00N 40°30' E 017°09'0 0.0
2017-Aug-15 02:30N 40°30' E 017°09'0 0.0
2017-Aug-15 02:00N 40°30' E 017°09'0 0.0
2017-Aug-15 01:30N 40°30' E 017°09'0 0.0
2017-Aug-15 01:00N 40°30' E 017°09'0 0.0
2017-Aug-15 00:30N 40°30' E 017°09'0 0.0
2017-Aug-15 00:00N 40°30' E 017°09'0 0.0
2017-Aug-14 23:30N 40°30' E 017°09'0 0.0
2017-Aug-14 23:00N 40°30' E 017°09'0 0.0
2017-Aug-14 22:30N 40°30' E 017°09'0 0.0
2017-Aug-14 22:00N 40°30' E 017°09'0 0.0
2017-Aug-14 21:30N 40°30' E 017°09'0 0.0
2017-Aug-14 21:00N 40°30' E 017°09'0 0.0
2017-Aug-14 20:30N 40°30' E 017°09'0 0.0
2017-Aug-14 20:00N 40°30' E 017°09'0 0.0
2017-Aug-14 19:30N 40°30' E 017°09'0 0.0
2017-Aug-14 19:00N 40°30' E 017°09'0 0.0
2017-Aug-14 18:30N 40°30' E 017°09'0 0.0
2017-Aug-14 18:00N 40°30' E 017°09'0 0.0
2017-Aug-14 17:30N 40°30' E 017°09'0 0.0
2017-Aug-14 17:00N 40°30' E 017°09'0 0.0
2017-Aug-14 16:30N 40°30' E 017°09'0 0.0
2017-Aug-14 16:00N 40°30' E 017°09'0 0.0
2017-Aug-14 15:30N 40°30' E 017°09'0 0.0
2017-Aug-14 15:00N 40°30' E 017°09'0 0.0
2017-Aug-14 14:30N 40°30' E 017°09'0 0.0
2017-Aug-14 14:00N 40°30' E 017°09'0 0.0
2017-Aug-14 13:27N 40°30' E 017°09'0 0.0
2017-Aug-14 13:00N 40°30' E 017°09'0 0.0
2017-Aug-14 12:30N 40°30' E 017°09'0 0.0
2017-Aug-14 12:00N 40°30' E 017°09'0 0.0
2017-Aug-14 11:30N 40°30' E 017°09'0 0.0
2017-Aug-14 11:00N 40°30' E 017°09'0 0.0
2017-Aug-14 10:30N 40°30' E 017°09'0 0.0
2017-Aug-14 10:00N 40°30' E 017°09'0 0.0
2017-Aug-14 09:30N 40°30' E 017°09'0 0.0
2017-Aug-14 09:00N 40°30' E 017°09'0 0.0
2017-Aug-14 08:30N 40°30' E 017°09'0 0.0
2017-Aug-14 08:00N 40°30' E 017°09'0 0.0
2017-Aug-14 07:30N 40°30' E 017°09'0 0.0
2017-Aug-14 07:00N 40°30' E 017°09'0 0.0
2017-Aug-14 06:30N 40°30' E 017°09'0 0.0
2017-Aug-14 06:00N 40°30' E 017°09'0 0.0
2017-Aug-14 05:30N 40°30' E 017°09'0 0.0
2017-Aug-14 05:00N 40°30' E 017°09'0 0.0
2017-Aug-14 04:30N 40°30' E 017°09'0 0.0
2017-Aug-14 04:00N 40°30' E 017°09'0 0.0
2017-Aug-14 03:30N 40°30' E 017°09'0 0.0
2017-Aug-14 03:00N 40°30' E 017°09'0 0.0
2017-Aug-14 02:30N 40°30' E 017°09'0 0.0
2017-Aug-14 02:00N 40°30' E 017°09'0 0.0
2017-Aug-14 01:30N 40°30' E 017°09'0 0.0
2017-Aug-14 01:00N 40°30' E 017°09'0 0.0
2017-Aug-14 00:30N 40°30' E 017°09'0 0.0
2017-Aug-14 00:00N 40°30' E 017°09'0 0.0
2017-Aug-13 23:30N 40°30' E 017°09'0 0.0
2017-Aug-13 23:00N 40°30' E 017°09'0 0.0
2017-Aug-13 22:30N 40°30' E 017°09'0 0.0
2017-Aug-13 22:00N 40°30' E 017°09'0 0.0
2017-Aug-13 21:30N 40°30' E 017°09'0 0.0
2017-Aug-13 21:00N 40°30' E 017°09'0 0.0
2017-Aug-13 20:30N 40°30' E 017°09'0 0.0
2017-Aug-13 19:54N 40°30' E 017°09'0 0.0
2017-Aug-13 19:30N 40°30' E 017°09'0 0.0
2017-Aug-13 19:00N 40°30' E 017°09'0 0.0
2017-Aug-13 18:30N 40°30' E 017°09'0 0.0
2017-Aug-13 18:00N 40°30' E 017°09'0 0.0
2017-Aug-13 17:30N 40°30' E 017°09'0 0.0
2017-Aug-13 17:00N 40°30' E 017°09'0 0.0
2017-Aug-13 16:30N 40°30' E 017°09'0 0.0
2017-Aug-13 16:00N 40°30' E 017°09'0 0.0
2017-Aug-13 15:30N 40°30' E 017°09'0 0.0
2017-Aug-13 15:00N 40°30' E 017°09'0 0.0
2017-Aug-13 14:30N 40°30' E 017°09'0 0.0
2017-Aug-13 14:00N 40°30' E 017°09'0 0.0
2017-Aug-13 13:30N 40°30' E 017°09'0 0.0
2017-Aug-13 13:00N 40°30' E 017°09'0 0.0
2017-Aug-13 12:30N 40°30' E 017°09'0 0.0
2017-Aug-13 11:57N 40°30' E 017°09'0 0.0
2017-Aug-13 11:30N 40°30' E 017°09'0 0.0
2017-Aug-13 11:00N 40°30' E 017°09'0 0.0
2017-Aug-13 10:30N 40°30' E 017°09'0 0.0
2017-Aug-13 10:00N 40°30' E 017°09'0 0.0
2017-Aug-13 09:27N 40°30' E 017°09'0 0.0
2017-Aug-13 09:00N 40°30' E 017°09'0 0.0
2017-Aug-13 08:30N 40°30' E 017°09'0 0.0
2017-Aug-13 08:00N 40°30' E 017°09'0 0.0
2017-Aug-13 07:30N 40°30' E 017°09'0 0.0
2017-Aug-13 06:57N 40°30' E 017°09'0 0.0
2017-Aug-13 06:30N 40°30' E 017°09'0 0.0
2017-Aug-13 05:57N 40°30' E 017°09'0 0.0
2017-Aug-13 05:30N 40°30' E 017°09'0 0.0
2017-Aug-13 05:00N 40°30' E 017°09'0 0.0
2017-Aug-13 04:30N 40°30' E 017°09'0 0.0
2017-Aug-13 04:00N 40°30' E 017°09'0 0.0
2017-Aug-13 03:30N 40°30' E 017°09'0 0.0
2017-Aug-13 03:00N 40°30' E 017°09'0 0.0
2017-Aug-13 02:30N 40°30' E 017°09'0 0.0
2017-Aug-13 02:00N 40°30' E 017°09'0 0.0
2017-Aug-13 01:30N 40°30' E 017°09'0 0.0
2017-Aug-13 01:00N 40°30' E 017°09'0 0.0
2017-Aug-13 00:30N 40°30' E 017°09'0 0.0
2017-Aug-13 00:00N 40°30' E 017°09'0 0.0
2017-Aug-12 23:30N 40°30' E 017°09'0 0.0
2017-Aug-12 23:00N 40°30' E 017°09'0 0.0
2017-Aug-12 22:30N 40°30' E 017°09'0 0.0
2017-Aug-12 21:57N 40°30' E 017°09'0 0.0
2017-Aug-12 21:30N 40°30' E 017°09'0 0.0
2017-Aug-12 21:00N 40°30' E 017°09'0 0.0
2017-Aug-12 20:27N 40°30' E 017°09'0 0.0
2017-Aug-12 20:00N 40°30' E 017°09'0 0.0
2017-Aug-12 19:24N 40°30' E 017°09'0 0.0
2017-Aug-12 19:00N 40°30' E 017°09'0 0.0
2017-Aug-12 18:30N 40°30' E 017°09'0 0.0
2017-Aug-12 18:00N 40°30' E 017°09'0 0.0
2017-Aug-12 17:30N 40°30' E 017°09'0 0.0
2017-Aug-12 17:00N 40°30' E 017°09'0 0.0
2017-Aug-12 16:30N 40°30' E 017°09'0 0.0
2017-Aug-12 16:00N 40°30' E 017°09'0 0.0
2017-Aug-12 15:30N 40°30' E 017°09'0 0.0
2017-Aug-12 15:00N 40°30' E 017°09'0 0.0
2017-Aug-12 14:30N 40°30' E 017°09'0 0.0
2017-Aug-12 14:00N 40°30' E 017°09'0 0.0
2017-Aug-12 13:30N 40°30' E 017°09'0 0.0
2017-Aug-12 13:00N 40°30' E 017°09'0 0.0
2017-Aug-12 12:30N 40°30' E 017°09'0 0.0
2017-Aug-12 12:00N 40°30' E 017°09'0 0.0
2017-Aug-12 11:30N 40°30' E 017°09'0 0.0
2017-Aug-12 11:00N 40°30' E 017°09'0 0.0
2017-Aug-12 10:30N 40°30' E 017°09'0 0.0
2017-Aug-12 10:00N 40°30' E 017°09'0 0.0
2017-Aug-12 09:30N 40°30' E 017°09'0 0.0
2017-Aug-12 09:00N 40°30' E 017°09'0 0.0
2017-Aug-12 08:30N 40°30' E 017°09'0 0.0
2017-Aug-12 08:00N 40°30' E 017°09'0 0.0
2017-Aug-12 07:30N 40°30' E 017°09'0 0.0
2017-Aug-12 06:57N 40°30' E 017°09'0 0.0
2017-Aug-12 06:30N 40°30' E 017°09'0 0.0
2017-Aug-12 06:00N 40°30' E 017°09'0 0.0
2017-Aug-12 05:30N 40°30' E 017°09'0 0.0
2017-Aug-12 05:00N 40°30' E 017°09'0 0.0
2017-Aug-12 04:30N 40°30' E 017°09'0 0.0
2017-Aug-12 04:00N 40°30' E 017°09'0 0.0
2017-Aug-12 03:30N 40°30' E 017°09'0 0.0
2017-Aug-12 03:00N 40°30' E 017°09'0 0.0
2017-Aug-12 02:30N 40°30' E 017°09'0 0.0
2017-Aug-12 02:00N 40°30' E 017°09'0 0.0
2017-Aug-12 01:30N 40°30' E 017°09'0 0.0
2017-Aug-12 01:00N 40°30' E 017°09'0 0.0
2017-Aug-12 00:30N 40°30' E 017°09'0 0.0
2017-Aug-12 00:00N 40°30' E 017°09'0 0.0
2017-Aug-11 23:30N 40°30' E 017°09'0 0.0
2017-Aug-11 23:00N 40°30' E 017°09'0 0.0
2017-Aug-11 22:30N 40°30' E 017°09'0 0.0
2017-Aug-11 22:00N 40°30' E 017°09'0 0.0
2017-Aug-11 21:27N 40°30' E 017°09'0 0.0
2017-Aug-11 21:00N 40°30' E 017°09'0 0.0
2017-Aug-11 20:30N 40°30' E 017°09'0 0.0
2017-Aug-11 20:00N 40°30' E 017°09'0 0.0
2017-Aug-11 19:30N 40°30' E 017°09'0 0.0
2017-Aug-11 19:00N 40°30' E 017°09'0 0.0
2017-Aug-11 18:30N 40°30' E 017°09'0 0.0
2017-Aug-11 18:00N 40°30' E 017°09'0 0.0
2017-Aug-11 17:27N 40°30' E 017°09'0 0.0
2017-Aug-11 17:00N 40°30' E 017°09'0 0.0
2017-Aug-11 16:30N 40°30' E 017°09'0 0.0
2017-Aug-11 16:00N 40°30' E 017°09'0 0.0
2017-Aug-11 15:30N 40°30' E 017°09'0 0.0
2017-Aug-11 15:00N 40°30' E 017°09'0 1.0
2017-Aug-11 14:30N 40°30' E 017°09'7 6.6
2017-Aug-11 13:30N 40°23' E 017°08'510.1
2017-Aug-11 13:00N 40°18' E 017°08'510.1
2017-Aug-11 12:30N 40°13' E 017°09'510.0
2017-Aug-11 12:00N 40°08' E 017°10'510.0
2017-Aug-11 11:30N 40°03' E 017°11'510.0
2017-Aug-11 11:00N 39°58' E 017°11'5 9.9
2017-Aug-11 10:30N 39°53' E 017°12'510.0
2017-Aug-11 10:00N 39°48' E 017°12'5 9.9
2017-Aug-11 09:30N 39°43' E 017°12'6 9.7
2017-Aug-11 08:56N 39°38' E 017°13'4 9.4
2017-Aug-11 08:28N 39°33' E 017°14'4 9.6
2017-Aug-11 08:00N 39°29' E 017°15'5 9.6
2017-Aug-11 07:30N 39°24' E 017°15'5 9.6
2017-Aug-11 07:00N 39°19' E 017°16'5 9.8
2017-Aug-11 06:30N 39°14' E 017°17'510.0
2017-Aug-11 06:00N 39°10' E 017°17'510.1
2017-Aug-11 05:30N 39°05' E 017°18'510.0
2017-Aug-11 05:00N 38°60' E 017°19'4 8.8
2017-Aug-11 04:30N 38°55' E 017°17'5 9.5
2017-Aug-11 04:00N 38°52' E 017°13'5 9.5
2017-Aug-11 03:30N 38°48' E 017°10'5 9.3
2017-Aug-11 03:00N 38°44' E 017°06'5 9.2
2017-Aug-11 02:30N 38°41' E 017°02'77 9.0
2017-Aug-10 17:57N 37°52' E 015°47'4 8.3
2017-Aug-10 17:30N 37°53' E 015°42'4 8.6
2017-Aug-10 17:00N 37°56' E 015°38'4 9.0
2017-Aug-10 16:30N 37°59' E 015°34'4 8.1
2017-Aug-10 16:00N 38°03' E 015°33'4 8.8
2017-Aug-10 15:30N 38°07' E 015°34'4 8.3
2017-Aug-10 15:00N 38°11' E 015°35'4 8.7
2017-Aug-10 14:30N 38°15' E 015°38'4 6.6
2017-Aug-10 13:57N 38°19' E 015°39'4 9.5
2017-Aug-10 13:29N 38°22' E 015°34'510.0
2017-Aug-10 13:00N 38°25' E 015°30'5 9.7
2017-Aug-10 12:26N 38°29' E 015°25'5 9.7
2017-Aug-10 11:54N 38°32' E 015°20'4 9.6
2017-Aug-10 11:30N 38°35' E 015°16'88 9.8
2017-Aug-10 02:34N 39°34' E 013°52'1 9.9
2017-Aug-10 02:30N 39°34' E 013°52'5 9.8
2017-Aug-10 02:00N 39°37' E 013°47'9 9.9
2017-Aug-10 01:08N 39°43' E 013°39'1 9.9
2017-Aug-10 01:00N 39°44' E 013°37'256 8.9
2017-Aug-08 20:09N 43°05' E 010°05'7 9.7
2017-Aug-08 19:26N 43°12' E 010°07'4 9.6
2017-Aug-08 19:00N 43°16' E 010°08'5 9.5
2017-Aug-08 18:30N 43°20' E 010°10'5 9.6
2017-Aug-08 18:00N 43°25' E 010°11'5 9.7
2017-Aug-08 17:30N 43°30' E 010°13'4 8.5
2017-Aug-08 16:59N 43°32' E 010°17'1 1.4
2017-Aug-08 16:30N 43°33' E 010°18'0 0.0
2017-Aug-08 15:59N 43°33' E 010°18'0 0.0
2017-Aug-08 15:26N 43°33' E 010°18'0 0.0
2017-Aug-08 14:59N 43°33' E 010°18'0 0.0
2017-Aug-08 14:11N 43°33' E 010°18'0 0.0
2017-Aug-08 13:56N 43°33' E 010°18'0 0.0
2017-Aug-08 13:26N 43°33' E 010°18'0 0.0
2017-Aug-08 12:59N 43°33' E 010°18'0 0.0
2017-Aug-08 12:29N 43°33' E 010°18'0 0.0
2017-Aug-08 11:50N 43°33' E 010°18'0 0.0
2017-Aug-08 11:29N 43°33' E 010°18'0 0.0
2017-Aug-08 10:53N 43°33' E 010°18'0 0.0
2017-Aug-08 10:29N 43°33' E 010°18'0 0.0
2017-Aug-08 09:59N 43°33' E 010°18'0 0.0
2017-Aug-08 09:14N 43°33' E 010°18'0 0.0
2017-Aug-08 08:56N 43°33' E 010°18'0 0.0
2017-Aug-08 08:20N 43°33' E 010°18'0 0.0
2017-Aug-08 07:20N 43°33' E 010°18'0 0.0
2017-Aug-08 06:56N 43°33' E 010°18'0 0.0
2017-Aug-08 03:32N 43°33' E 010°18'0 0.0
2017-Aug-08 03:26N 43°33' E 010°18'0 0.0
2017-Aug-08 02:56N 43°33' E 010°18'0 0.0
2017-Aug-08 02:20N 43°33' E 010°18'0 0.0
2017-Aug-08 01:59N 43°33' E 010°18'0 0.0
2017-Aug-08 01:29N 43°33' E 010°18'0 0.0
2017-Aug-08 00:59N 43°33' E 010°18'0 0.0
2017-Aug-08 00:29N 43°33' E 010°18'0 0.0
2017-Aug-07 23:59N 43°33' E 010°18'0 0.0
2017-Aug-07 23:29N 43°33' E 010°18'0 0.0
2017-Aug-07 22:56N 43°33' E 010°18'0 0.0
2017-Aug-07 22:20N 43°33' E 010°18'0 0.0
2017-Aug-07 21:17N 43°33' E 010°18'0 0.0
2017-Aug-07 20:59N 43°33' E 010°18'0 0.0
2017-Aug-07 19:53N 43°33' E 010°18'0 0.0
2017-Aug-07 19:23N 43°33' E 010°18'0 0.0
2017-Aug-07 18:59N 43°33' E 010°18'0 0.0
2017-Aug-07 18:29N 43°33' E 010°18'0 0.0
2017-Aug-07 17:56N 43°33' E 010°18'0 0.0
2017-Aug-07 17:26N 43°33' E 010°18'0 0.0
2017-Aug-07 16:56N 43°33' E 010°18'0 0.0
2017-Aug-07 16:29N 43°33' E 010°18'0 0.0
2017-Aug-07 15:59N 43°33' E 010°18'0 0.0
2017-Aug-07 15:14N 43°33' E 010°18'0 0.0
2017-Aug-07 14:59N 43°33' E 010°18'0 0.0
2017-Aug-07 14:23N 43°33' E 010°18'0 0.0
2017-Aug-07 13:56N 43°33' E 010°18'0 0.0
2017-Aug-07 13:29N 43°33' E 010°18'0 0.0
2017-Aug-07 12:53N 43°33' E 010°18'0 0.0
2017-Aug-07 12:29N 43°33' E 010°18'0 0.0
2017-Aug-07 11:59N 43°33' E 010°18'0 0.0
2017-Aug-07 11:26N 43°33' E 010°18'0 0.0
2017-Aug-07 10:47N 43°33' E 010°18'0 0.0
2017-Aug-07 10:26N 43°33' E 010°18'0 0.0
2017-Aug-07 09:59N 43°33' E 010°18'  

Dump ship's entire track history